Time;durP1;ratioP1;P1;durP2;ratioP2;P2;SDS_P1;SDS_P2;PMS_P1;PMS_P2;Temp;Humidity;BMP_temperature;BMP_pressure;BME280_temperature;BME280_humidity;BME280_pressure;Samples;Min_cycle;Max_cycle;Signal;HPM_P1;HPM_P2
2023/12/17 00:01:02;;;;;;;7.20;4.47;;;15.50;88.80;;;;;;4169560;28;20084;-51
2023/12/17 00:03:43;;;;;;;7.22;4.00;;;15.50;89.70;;;;;;4171396;28;20458;-54
2023/12/17 00:06:24;;;;;;;9.85;3.65;;;15.50;89.70;;;;;;4170898;28;20068;-53
2023/12/17 00:09:06;;;;;;;6.85;3.72;;;15.50;89.00;;;;;;4168722;28;20404;-57
2023/12/17 00:11:48;;;;;;;5.15;3.25;;;15.50;89.10;;;;;;4166371;28;20403;-62
2023/12/17 00:14:33;;;;;;;6.72;3.30;;;15.50;89.40;;;;;;4153508;28;20043;-62
2023/12/17 00:17:15;;;;;;;5.57;3.75;;;15.50;89.30;;;;;;4180948;28;20142;-61
2023/12/17 00:19:56;;;;;;;4.95;3.42;;;15.50;89.20;;;;;;4170033;28;20072;-62
2023/12/17 00:22:37;;;;;;;6.28;3.70;;;15.50;89.20;;;;;;4174135;28;20445;-62
2023/12/17 00:25:20;;;;;;;4.05;3.65;;;15.50;89.30;;;;;;4170147;28;20047;-61
2023/12/17 00:28:01;;;;;;;5.40;3.40;;;15.50;89.20;;;;;;4186258;28;20412;-61
2023/12/17 00:30:42;;;;;;;7.75;3.63;;;15.50;89.50;;;;;;4186317;28;20186;-61
2023/12/17 00:33:24;;;;;;;6.03;3.85;;;15.50;89.50;;;;;;4186577;28;20195;-61
2023/12/17 00:36:06;;;;;;;4.28;3.50;;;15.50;89.50;;;;;;4171609;28;20064;-61
2023/12/17 00:38:47;;;;;;;5.30;3.83;;;15.50;89.70;;;;;;4173939;28;20068;-55
2023/12/17 00:41:29;;;;;;;4.78;3.67;;;15.40;89.60;;;;;;4187705;28;20055;-52
2023/12/17 00:44:09;;;;;;;7.97;3.45;;;15.40;89.60;;;;;;4187498;28;20059;-55
2023/12/17 00:46:51;;;;;;;4.45;3.65;;;15.50;89.70;;;;;;4171860;28;20145;-55
2023/12/17 00:49:33;;;;;;;10.20;3.72;;;15.50;89.80;;;;;;4179271;28;20728;-61
2023/12/17 00:52:14;;;;;;;7.07;3.38;;;15.50;89.70;;;;;;4167157;28;20498;-61
2023/12/17 00:54:55;;;;;;;4.90;3.20;;;15.40;89.50;;;;;;4171272;28;20099;-61
2023/12/17 00:57:37;;;;;;;;;;;15.40;89.30;;;;;;4171854;28;20093;-61
2023/12/17 01:00:18;;;;;;;11.07;4.72;;;15.40;89.20;;;;;;4183036;28;20398;-55
2023/12/17 01:02:59;;;;;;;5.75;3.80;;;15.40;89.90;;;;;;4186334;28;20052;-55
2023/12/17 01:05:42;;;;;;;4.60;3.47;;;15.40;89.90;;;;;;4187717;28;20071;-61
2023/12/17 01:08:25;;;;;;;5.93;3.70;;;15.40;89.90;;;;;;4169860;28;20056;-61
2023/12/17 01:11:07;;;;;;;5.95;3.35;;;15.40;90.00;;;;;;4149979;28;20071;-61
2023/12/17 01:13:54;;;;;;;4.22;3.20;;;15.40;90.00;;;;;;4176142;28;20098;-61
2023/12/17 01:16:38;;;;;;;6.88;4.18;;;15.40;90.00;;;;;;4161392;28;20052;-62
2023/12/17 01:19:19;;;;;;;5.90;3.47;;;15.40;90.00;;;;;;4166749;28;20094;-63
2023/12/17 01:22:02;;;;;;;3.58;3.00;;;15.40;90.00;;;;;;4167836;28;20048;-62
2023/12/17 01:24:49;;;;;;;5.32;3.42;;;15.40;89.90;;;;;;4178448;28;20058;-61
2023/12/17 01:27:31;;;;;;;4.15;3.13;;;15.40;89.70;;;;;;4182203;28;20098;-60
2023/12/17 01:30:13;;;;;;;;;;;15.40;89.70;;;;;;4183620;28;20106;-62
2023/12/17 01:32:55;;;;;;;4.53;3.03;;;15.40;89.70;;;;;;4182269;28;20011;-61
2023/12/17 01:35:36;;;;;;;6.88;3.47;;;15.40;90.00;;;;;;4179591;28;20106;-61
2023/12/17 01:38:19;;;;;;;6.38;3.35;;;15.40;90.00;;;;;;4185770;28;20509;-61
2023/12/17 01:41:03;;;;;;;5.18;2.97;;;15.40;89.90;;;;;;4180858;28;20071;-54
2023/12/17 01:43:45;;;;;;;4.70;2.42;;;15.40;89.90;;;;;;4181492;28;20617;-54
2023/12/17 01:46:27;;;;;;;4.72;3.20;;;15.30;89.90;;;;;;4162390;28;20110;-52
2023/12/17 01:49:09;;;;;;;4.35;3.10;;;15.30;89.90;;;;;;4176545;28;20110;-61
2023/12/17 01:51:51;;;;;;;3.72;3.42;;;15.30;89.90;;;;;;4185264;28;20406;-61
2023/12/17 01:54:33;;;;;;;5.10;3.33;;;15.30;90.00;;;;;;4167488;28;20507;-61
2023/12/17 01:57:14;;;;;;;4.70;2.90;;;15.30;90.00;;;;;;4181161;28;20364;-61
2023/12/17 01:59:56;;;;;;;4.68;3.28;;;15.30;89.90;;;;;;4174184;28;20055;-60
2023/12/17 02:02:37;;;;;;;3.72;2.88;;;15.30;89.90;;;;;;4184555;28;20054;-61
2023/12/17 02:05:18;;;;;;;;;;;15.30;90.00;;;;;;4168570;28;20056;-60
2023/12/17 02:08:02;;;;;;;4.75;3.28;;;15.30;90.00;;;;;;4159171;28;20500;-60
2023/12/17 02:10:45;;;;;;;6.45;3.20;;;15.30;90.10;;;;;;4184312;28;20075;-61
2023/12/17 02:13:26;;;;;;;3.30;3.00;;;15.30;90.00;;;;;;4179324;28;20066;-62
2023/12/17 02:16:11;;;;;;;8.25;3.42;;;15.30;90.00;;;;;;4146859;28;20059;-62
2023/12/17 02:18:59;;;;;;;7.45;3.50;;;15.30;90.00;;;;;;4166746;28;20396;-62
2023/12/17 02:21:40;;;;;;;4.65;2.70;;;15.30;90.10;;;;;;4141053;28;20056;-57
2023/12/17 02:24:23;;;;;;;7.00;3.08;;;15.30;89.90;;;;;;4167262;28;20419;-55
2023/12/17 02:27:04;;;;;;;5.25;3.60;;;15.30;89.90;;;;;;4166048;28;20055;-60
2023/12/17 02:29:46;;;;;;;7.30;3.80;;;15.30;89.90;;;;;;4152412;28;20052;-57
2023/12/17 02:32:27;;;;;;;5.72;2.88;;;15.30;90.00;;;;;;4159748;28;20158;-54
2023/12/17 02:35:13;;;;;;;3.38;2.90;;;15.30;90.00;;;;;;4167445;28;20178;-55
2023/12/17 02:37:55;;;;;;;3.65;2.83;;;15.30;90.20;;;;;;4150548;28;20070;-53
2023/12/17 02:40:37;;;;;;;2.83;2.60;;;15.30;90.30;;;;;;4146288;28;20115;-55
2023/12/17 02:43:18;;;;;;;3.50;2.60;;;15.40;90.30;;;;;;4133196;28;20197;-55
2023/12/17 02:46:00;;;;;;;4.38;2.80;;;15.50;90.20;;;;;;4161686;28;20060;-53
2023/12/17 02:48:41;;;;;;;7.68;3.00;;;15.50;90.10;;;;;;4165756;28;20083;-56
2023/12/17 02:51:22;;;;;;;2.97;2.65;;;15.50;90.10;;;;;;4183529;28;20883;-53
2023/12/17 02:54:06;;;;;;;6.00;2.70;;;15.50;90.00;;;;;;4171087;28;20086;-63
2023/12/17 02:56:52;;;;;;;3.13;2.67;;;15.60;90.00;;;;;;4166299;28;20126;-63
2023/12/17 02:59:33;;;;;;;4.35;2.80;;;15.50;89.60;;;;;;4180131;28;20071;-63
2023/12/17 03:02:15;;;;;;;5.60;2.72;;;15.60;89.40;;;;;;4175758;28;20096;-63
2023/12/17 03:04:59;;;;;;;;;;;15.50;89.60;;;;;;4171094;28;20056;-63
2023/12/17 03:07:40;;;;;;;10.55;3.47;;;15.60;90.10;;;;;;4147998;28;19979;-62
2023/12/17 03:10:22;;;;;;;6.25;3.20;;;15.60;90.10;;;;;;4165098;28;20052;-62
2023/12/17 03:13:05;;;;;;;5.30;2.90;;;15.80;90.00;;;;;;4175892;28;20075;-62
2023/12/17 03:15:48;;;;;;;5.85;3.00;;;15.90;89.50;;;;;;4183902;28;20166;-61
2023/12/17 03:18:30;;;;;;;8.40;2.70;;;15.90;89.10;;;;;;4171223;28;20056;-53
2023/12/17 03:21:12;;;;;;;8.45;3.33;;;16.00;88.90;;;;;;4180511;28;20064;-53
2023/12/17 03:23:53;;;;;;;3.08;2.70;;;16.00;88.70;;;;;;4185842;28;20055;-51
2023/12/17 03:26:34;;;;;;;4.57;2.80;;;16.00;88.50;;;;;;4183653;28;20445;-52
2023/12/17 03:29:17;;;;;;;5.55;3.13;;;16.00;88.70;;;;;;4171694;28;20098;-51
2023/12/17 03:31:58;;;;;;;5.90;3.10;;;16.10;88.60;;;;;;4171069;28;20194;-55
2023/12/17 03:34:39;;;;;;;5.63;2.85;;;16.10;88.30;;;;;;4169025;28;20122;-52
2023/12/17 03:37:20;;;;;;;5.80;2.80;;;16.10;88.10;;;;;;4184681;28;20055;-54
2023/12/17 03:40:01;;;;;;;3.80;3.00;;;16.10;88.00;;;;;;4185286;28;20059;-51
2023/12/17 03:42:43;;;;;;;5.68;3.08;;;16.10;88.00;;;;;;4185863;28;20498;-51
2023/12/17 03:45:25;;;;;;;5.80;2.88;;;16.10;88.10;;;;;;4175426;28;20056;-52
2023/12/17 03:48:07;;;;;;;5.75;2.60;;;16.20;88.20;;;;;;4171682;28;20068;-60
2023/12/17 03:50:49;;;;;;;7.47;3.33;;;16.20;88.10;;;;;;4164257;28;20556;-60
2023/12/17 03:53:30;;;;;;;5.47;2.80;;;16.20;87.90;;;;;;4172247;28;20063;-61
2023/12/17 03:56:12;;;;;;;7.47;3.97;;;16.20;87.70;;;;;;4187662;28;20800;-61
2023/12/17 03:58:53;;;;;;;5.55;2.90;;;16.20;87.70;;;;;;4188842;28;20048;-61
2023/12/17 04:01:44;;;;;;;2.72;2.53;;;16.30;87.70;;;;;;4176432;28;20199;-61
2023/12/17 04:04:25;;;;;;;5.15;3.28;;;16.30;87.60;;;;;;4176587;28;20056;-61
2023/12/17 04:07:06;;;;;;;4.85;3.20;;;16.20;87.60;;;;;;4187151;28;20094;-60
2023/12/17 04:09:48;;;;;;;4.55;3.28;;;16.20;87.70;;;;;;4188197;28;20097;-61
2023/12/17 04:12:29;;;;;;;6.43;3.80;;;16.20;87.90;;;;;;4188401;28;20059;-61
2023/12/17 04:15:10;;;;;;;;;;;16.10;88.00;;;;;;4171708;28;20513;-61
2023/12/17 04:17:53;;;;;;;6.63;4.05;;;16.20;88.20;;;;;;4184362;28;19949;-61
2023/12/17 04:20:33;;;;;;;3.40;3.10;;;16.20;88.10;;;;;;4180736;28;20871;-60
2023/12/17 04:23:15;;;;;;;6.47;4.18;;;16.20;87.90;;;;;;4187881;28;20052;-61
2023/12/17 04:25:56;;;;;;;7.10;3.92;;;16.20;87.60;;;;;;4188373;28;20055;-61
2023/12/17 04:28:37;;;;;;;5.57;3.25;;;16.20;87.80;;;;;;4188679;28;20051;-60
2023/12/17 04:31:18;;;;;;;6.05;3.55;;;16.20;87.70;;;;;;4188198;28;20055;-62
2023/12/17 04:34:00;;;;;;;7.38;4.10;;;16.30;87.70;;;;;;4187328;28;20102;-60
2023/12/17 04:36:42;;;;;;;8.35;3.45;;;16.30;87.70;;;;;;4188543;28;20411;-60
2023/12/17 04:39:24;;;;;;;;;;;16.30;87.60;;;;;;4188916;28;20193;-60
2023/12/17 04:42:06;;;;;;;11.32;3.15;;;16.30;88.40;;;;;;4167674;28;20403;-60
2023/12/17 04:44:47;;;;;;;5.90;3.50;;;16.30;87.70;;;;;;4155071;28;20080;-60
2023/12/17 04:47:27;;;;;;;5.57;3.33;;;16.30;87.50;;;;;;4171830;28;20110;-60
2023/12/17 04:50:10;;;;;;;7.20;3.90;;;16.40;87.40;;;;;;4172128;28;20079;-60
2023/12/17 04:52:51;;;;;;;6.30;3.83;;;16.40;87.20;;;;;;4176673;28;20047;-60
2023/12/17 04:55:32;;;;;;;9.10;3.20;;;16.40;87.20;;;;;;4171422;28;20060;-60
2023/12/17 04:58:13;;;;;;;4.22;3.42;;;16.40;87.10;;;;;;4169947;28;20182;-60
2023/12/17 05:00:58;;;;;;;8.18;3.58;;;16.40;87.30;;;;;;4172074;28;20376;-51
2023/12/17 05:03:39;;;;;;;6.10;4.13;;;16.30;88.10;;;;;;4186491;28;20059;-52
2023/12/17 05:06:22;;;;;;;7.38;3.95;;;16.40;87.10;;;;;;4187578;28;20039;-53
2023/12/17 05:09:04;;;;;;;6.03;3.78;;;16.40;86.90;;;;;;4171287;28;20072;-52
2023/12/17 05:11:45;;;;;;;5.93;3.40;;;16.40;86.70;;;;;;4171719;28;20064;-54
2023/12/17 05:14:26;;;;;;;8.30;3.80;;;16.40;86.70;;;;;;4187336;28;20383;-60
2023/12/17 05:17:07;;;;;;;4.55;3.28;;;16.40;86.90;;;;;;4171438;28;20064;-60
2023/12/17 05:19:48;;;;;;;7.43;3.80;;;16.40;86.70;;;;;;4171167;28;20060;-60
2023/12/17 05:22:30;;;;;;;5.80;3.25;;;16.40;86.80;;;;;;4177700;28;20059;-60
2023/12/17 05:25:11;;;;;;;4.95;3.20;;;16.40;86.70;;;;;;4187572;28;20068;-60
2023/12/17 05:27:55;;;;;;;5.68;3.47;;;16.40;86.90;;;;;;4171225;28;20118;-60
2023/12/17 05:30:36;;;;;;;5.70;3.50;;;16.40;86.90;;;;;;4169822;28;20067;-60
2023/12/17 05:33:18;;;;;;;;;;;16.50;86.80;;;;;;4178516;28;20043;-60
2023/12/17 05:35:59;;;;;;;5.93;3.63;;;16.50;86.70;;;;;;4170553;28;20051;-55
2023/12/17 05:38:42;;;;;;;5.68;3.72;;;16.50;86.30;;;;;;4184125;28;20134;-59
2023/12/17 05:41:24;;;;;;;8.43;3.58;;;16.60;86.20;;;;;;4172012;28;20052;-53
2023/12/17 05:44:05;;;;;;;8.95;4.20;;;16.60;86.00;;;;;;4185701;28;20055;-54
2023/12/17 05:46:46;;;;;;;8.10;4.05;;;16.60;86.10;;;;;;4187259;28;20059;-55
2023/12/17 05:49:27;;;;;;;4.93;4.38;;;16.60;86.10;;;;;;4187147;28;20051;-51
2023/12/17 05:52:08;;;;;;;5.68;3.72;;;16.50;86.10;;;;;;4170300;28;20086;-55
2023/12/17 05:54:51;;;;;;;6.93;3.72;;;16.50;85.90;;;;;;4186017;28;20178;-61
2023/12/17 05:57:31;;;;;;;5.10;3.92;;;16.50;86.10;;;;;;4179042;28;20174;-60
2023/12/17 06:00:14;;;;;;;7.53;4.13;;;16.50;86.10;;;;;;4186661;28;20090;-62
2023/12/17 06:02:55;;;;;;;12.35;4.35;;;16.50;86.00;;;;;;4186024;28;20053;-62
2023/12/17 06:05:37;;;;;;;6.40;4.38;;;16.60;85.90;;;;;;4152207;28;20110;-55
2023/12/17 06:08:19;;;;;;;6.00;4.03;;;16.60;86.00;;;;;;4188692;28;20056;-55
2023/12/17 06:11:01;;;;;;;6.40;4.23;;;16.60;86.00;;;;;;4180681;28;20075;-55
2023/12/17 06:13:42;;;;;;;5.28;4.47;;;16.50;86.00;;;;;;4177414;28;20369;-55
2023/12/17 06:16:23;;;;;;;8.48;4.65;;;16.50;86.10;;;;;;4186735;28;20063;-54
2023/12/17 06:19:07;;;;;;;5.75;4.30;;;16.50;86.50;;;;;;4166947;28;20119;-57
2023/12/17 06:21:48;;;;;;;8.05;4.25;;;16.50;86.30;;;;;;4168608;28;20056;-56
2023/12/17 06:24:29;;;;;;;8.00;4.32;;;16.50;86.10;;;;;;4175913;28;20051;-55
2023/12/17 06:27:16;;;;;;;6.68;3.95;;;16.60;86.00;;;;;;4185722;28;20560;-56
2023/12/17 06:29:57;;;;;;;6.40;3.88;;;16.60;85.60;;;;;;4185417;28;20052;-54
2023/12/17 06:32:37;;;;;;;7.68;4.28;;;16.60;85.70;;;;;;4184633;28;20427;-57
2023/12/17 06:35:18;;;;;;;5.32;3.75;;;16.60;86.50;;;;;;4186049;28;20105;-55
2023/12/17 06:37:59;;;;;;;6.85;3.40;;;16.60;85.40;;;;;;4180436;28;20190;-54
2023/12/17 06:40:40;;;;;;;10.20;3.17;;;16.60;85.80;;;;;;4176293;28;20064;-54
2023/12/17 06:43:23;;;;;;;6.13;3.03;;;16.70;86.00;;;;;;4157433;28;20409;-55
2023/12/17 06:46:04;;;;;;;5.28;3.50;;;16.70;85.90;;;;;;4178112;28;20383;-53
2023/12/17 06:48:48;;;;;;;5.65;3.60;;;16.70;85.70;;;;;;4168882;28;20055;-61
2023/12/17 06:51:29;;;;;;;6.60;2.90;;;16.70;85.70;;;;;;4158691;28;20505;-59
2023/12/17 06:54:10;;;;;;;10.35;3.55;;;16.60;85.50;;;;;;4171005;28;20080;-60
2023/12/17 06:56:51;;;;;;;9.68;3.17;;;16.60;85.50;;;;;;4168012;28;20072;-60
2023/12/17 06:59:33;;;;;;;5.93;3.08;;;16.60;85.60;;;;;;4185417;28;20384;-59
2023/12/17 07:02:14;;;;;;;5.85;3.47;;;16.50;85.60;;;;;;4157752;28;20116;-60
2023/12/17 07:04:55;;;;;;;4.40;2.85;;;16.40;85.80;;;;;;4164337;28;20189;-59
2023/12/17 07:07:37;;;;;;;;;;;16.40;85.90;;;;;;4186095;28;20100;-60
2023/12/17 07:10:18;;;;;;;5.10;2.95;;;16.40;86.30;;;;;;4186770;28;19931;-61
2023/12/17 07:12:59;;;;;;;5.15;2.95;;;16.30;86.30;;;;;;4184631;28;20502;-60
2023/12/17 07:15:43;;;;;;;7.38;3.70;;;16.20;86.40;;;;;;4185907;28;20051;-59
2023/12/17 07:18:24;;;;;;;6.10;2.47;;;16.20;86.60;;;;;;4185240;28;20083;-60
2023/12/17 07:21:06;;;;;;;9.13;2.88;;;16.20;87.20;;;;;;4186787;28;20071;-59
2023/12/17 07:23:47;;;;;;;4.90;2.58;;;16.20;87.20;;;;;;4188853;28;20059;-59
2023/12/17 07:26:28;;;;;;;;;;;16.30;87.10;;;;;;4189528;28;20059;-60
2023/12/17 07:29:09;;;;;;;2.85;2.47;;;16.40;86.80;;;;;;4189270;28;19927;-59
2023/12/17 07:31:52;;;;;;;3.65;2.20;;;16.40;86.40;;;;;;4174852;28;20521;-62
2023/12/17 07:34:32;;;;;;;10.18;3.45;;;16.50;86.30;;;;;;4157677;28;20049;-60
2023/12/17 07:37:13;;;;;;;8.13;3.10;;;16.60;86.40;;;;;;4173356;28;20064;-61
2023/12/17 07:39:55;;;;;;;3.75;1.48;;;16.60;84.40;;;;;;4188958;28;20051;-60
2023/12/17 07:42:36;;;;;;;;;;;16.60;84.00;;;;;;4189128;28;20055;-60
2023/12/17 07:45:17;;;;;;;4.45;2.10;;;16.60;82.90;;;;;;4188912;28;20382;-60
2023/12/17 07:47:59;;;;;;;8.75;3.22;;;16.60;82.30;;;;;;4185560;28;20105;-60
2023/12/17 07:50:41;;;;;;;12.43;2.80;;;16.60;81.20;;;;;;4172251;28;20056;-61
2023/12/17 07:53:21;;;;;;;3.97;1.80;;;16.60;80.10;;;;;;4156801;28;20144;-61
2023/12/17 07:56:03;;;;;;;3.97;2.50;;;16.60;79.80;;;;;;4157919;28;20496;-60
2023/12/17 07:58:43;;;;;;;5.20;2.70;;;16.50;79.30;;;;;;4180744;28;20125;-60
2023/12/17 08:01:28;;;;;;;6.28;3.22;;;16.50;79.20;;;;;;4174127;28;20068;-60
2023/12/17 08:04:10;;;;;;;8.27;2.53;;;16.50;78.80;;;;;;4188847;28;20095;-60
2023/12/17 08:06:52;;;;;;;9.48;3.13;;;16.40;78.60;;;;;;4188619;28;20059;-60
2023/12/17 08:09:35;;;;;;;3.67;2.10;;;16.40;78.40;;;;;;4187402;28;20494;-60
2023/12/17 08:12:16;;;;;;;5.45;3.10;;;16.30;78.70;;;;;;4187527;28;20050;-60
2023/12/17 08:14:57;;;;;;;5.13;3.22;;;16.30;78.80;;;;;;4174101;28;20048;-60
2023/12/17 08:17:38;;;;;;;2.40;1.95;;;16.30;78.50;;;;;;4171729;28;20101;-60
2023/12/17 08:20:21;;;;;;;4.13;2.35;;;16.30;78.00;;;;;;4170102;28;20055;-60
2023/12/17 08:23:02;;;;;;;3.22;1.58;;;16.30;77.90;;;;;;4186089;28;20104;-60
2023/12/17 08:25:43;;;;;;;11.55;3.50;;;16.30;77.80;;;;;;4184695;28;20626;-60
2023/12/17 08:28:25;;;;;;;7.30;3.72;;;16.30;77.60;;;;;;4180998;28;20181;-61
2023/12/17 08:31:09;;;;;;;8.07;3.50;;;16.30;77.50;;;;;;4166929;28;20079;-60
2023/12/17 08:33:52;;;;;;;2.53;2.13;;;16.30;77.30;;;;;;4177764;28;20059;-62
2023/12/17 08:36:36;;;;;;;3.22;2.75;;;16.30;77.30;;;;;;4180580;28;20056;-61
2023/12/17 08:39:17;;;;;;;7.90;3.60;;;16.30;77.30;;;;;;4165822;28;20190;-60
2023/12/17 08:41:58;;;;;;;4.75;3.05;;;16.30;77.00;;;;;;4171393;28;20059;-60
2023/12/17 08:44:40;;;;;;;5.05;3.05;;;16.30;76.90;;;;;;4183530;28;20063;-60
2023/12/17 08:47:21;;;;;;;5.82;3.58;;;16.30;77.00;;;;;;4172275;28;20079;-60
2023/12/17 08:50:02;;;;;;;4.93;3.30;;;16.20;77.00;;;;;;4178102;28;20454;-55
2023/12/17 08:52:44;;;;;;;;;;;16.20;77.00;;;;;;4184175;28;20079;-54
2023/12/17 08:55:26;;;;;;;7.18;3.95;;;16.10;77.00;;;;;;4179682;28;20490;-56
2023/12/17 08:58:07;;;;;;;6.47;3.65;;;16.10;77.10;;;;;;4184270;28;20059;-56
2023/12/17 09:00:51;;;;;;;4.47;3.28;;;16.00;77.30;;;;;;4177562;28;20051;-54
2023/12/17 09:03:32;;;;;;;2.30;2.10;;;15.90;77.40;;;;;;4171469;28;20083;-56
2023/12/17 09:06:14;;;;;;;;;;;15.90;77.70;;;;;;4166920;28;20060;-52
2023/12/17 09:08:57;;;;;;;9.63;5.30;;;15.80;77.70;;;;;;4179031;28;20424;-60
2023/12/17 09:11:38;;;;;;;8.73;4.72;;;15.70;77.90;;;;;;4178495;28;20076;-62
2023/12/17 09:14:19;;;;;;;;;;;15.70;78.20;;;;;;4168827;28;20102;-60
2023/12/17 09:17:00;;;;;;;5.40;4.60;;;15.70;78.70;;;;;;4180646;28;19947;-62
2023/12/17 09:19:44;;;;;;;9.02;5.93;;;15.60;78.90;;;;;;4158005;28;20063;-61
2023/12/17 09:22:25;;;;;;;13.82;6.18;;;15.60;79.00;;;;;;4172312;28;20052;-60
2023/12/17 09:25:09;;;;;;;;;;;15.50;79.00;;;;;;4163112;28;20083;-62
2023/12/17 09:27:51;;;;;;;5.82;3.50;;;15.50;79.30;;;;;;4176122;28;19934;-61
2023/12/17 09:30:33;;;;;;;3.38;3.05;;;15.40;79.30;;;;;;4167409;28;20125;-52
2023/12/17 09:33:16;;;;;;;4.55;3.90;;;15.40;79.40;;;;;;4172238;28;20515;-55
2023/12/17 09:35:57;;;;;;;10.60;5.97;;;15.30;79.50;;;;;;4172305;28;20048;-55
2023/12/17 09:38:39;;;;;;;10.65;5.15;;;15.30;79.60;;;;;;4179434;28;20056;-55
2023/12/17 09:41:23;;;;;;;8.65;5.10;;;15.30;79.90;;;;;;4177879;28;20098;-62
2023/12/17 09:44:05;;;;;;;11.05;4.97;;;15.30;80.20;;;;;;4175747;28;20051;-61
2023/12/17 09:46:47;;;;;;;10.80;5.60;;;15.30;80.50;;;;;;4177303;28;20060;-61
2023/12/17 09:49:28;;;;;;;12.05;4.95;;;15.30;80.50;;;;;;4177405;28;20048;-62
2023/12/17 09:52:12;;;;;;;;;;;15.40;80.30;;;;;;4171440;28;20063;-61
2023/12/17 09:54:53;;;;;;;8.10;4.05;;;15.50;79.80;;;;;;4168821;28;19932;-61
2023/12/17 09:57:36;;;;;;;14.27;5.55;;;15.70;79.20;;;;;;4171494;28;20071;-62
2023/12/17 10:00:18;;;;;;;10.43;5.90;;;15.80;78.60;;;;;;4179919;28;20121;-61
2023/12/17 10:03:04;;;;;;;5.15;3.65;;;16.00;78.10;;;;;;4173999;28;20051;-61
2023/12/17 10:05:51;;;;;;;11.40;5.47;;;16.20;77.50;;;;;;4166890;28;20121;-60
2023/12/17 10:08:32;;;;;;;6.95;4.47;;;16.30;76.70;;;;;;4169484;28;20079;-61
2023/12/17 10:11:13;;;;;;;12.93;5.70;;;16.40;76.10;;;;;;4179791;28;20074;-60
2023/12/17 10:13:56;;;;;;;6.60;3.63;;;16.40;75.60;;;;;;4172186;28;20408;-60
2023/12/17 10:16:37;;;;;;;7.65;4.03;;;16.50;75.30;;;;;;4171827;28;20052;-60
2023/12/17 10:19:18;;;;;;;8.63;4.68;;;16.50;74.90;;;;;;4181678;28;20105;-60
2023/12/17 10:22:07;;;;;;;8.43;3.97;;;16.50;74.70;;;;;;4173829;28;20044;-55
2023/12/17 10:24:49;;;;;;;10.73;4.45;;;16.50;74.70;;;;;;4176400;28;20056;-54
2023/12/17 10:27:30;;;;;;;4.40;3.65;;;16.40;74.80;;;;;;4173562;28;20799;-54
2023/12/17 10:30:13;;;;;;;16.38;6.07;;;16.40;74.90;;;;;;4177092;28;20075;-54
2023/12/17 10:32:55;;;;;;;14.65;4.97;;;16.40;74.70;;;;;;4168636;28;20071;-54
2023/12/17 10:35:36;;;;;;;5.60;3.67;;;16.40;74.80;;;;;;4180973;28;20055;-53
2023/12/17 10:38:19;;;;;;;8.82;5.22;;;16.40;74.60;;;;;;4170397;28;20055;-52
2023/12/17 10:41:01;;;;;;;10.55;5.30;;;16.40;74.20;;;;;;4175731;28;20060;-53
2023/12/17 10:43:43;;;;;;;7.30;4.55;;;16.50;73.80;;;;;;4180620;28;20434;-54
2023/12/17 10:46:27;;;;;;;12.05;8.30;;;16.60;73.50;;;;;;4165705;28;20186;-55
2023/12/17 10:49:09;;;;;;;13.50;7.60;;;16.60;73.20;;;;;;4165840;28;20052;-53
2023/12/17 10:51:52;;;;;;;14.35;8.50;;;16.60;73.00;;;;;;4169230;28;20102;-55
2023/12/17 10:54:33;;;;;;;18.27;8.18;;;16.60;73.20;;;;;;4166615;28;20064;-56
2023/12/17 10:57:19;;;;;;;9.82;7.22;;;16.60;73.40;;;;;;4176540;28;20530;-55
2023/12/17 11:00:01;;;;;;;10.90;7.68;;;16.60;73.50;;;;;;4170325;28;20060;-53
2023/12/17 11:02:45;;;;;;;12.95;7.75;;;16.60;73.40;;;;;;4172546;28;20060;-54
2023/12/17 11:05:26;;;;;;;8.05;4.35;;;16.60;73.40;;;;;;4160033;28;20060;-53
2023/12/17 11:08:08;;;;;;;14.52;9.75;;;16.60;73.40;;;;;;4169989;28;20122;-55
2023/12/17 11:10:49;;;;;;;15.02;7.55;;;16.60;73.20;;;;;;4177865;28;20607;-55
2023/12/17 11:13:31;;;;;;;12.60;6.18;;;16.60;73.20;;;;;;4175648;28;20395;-54
2023/12/17 11:16:21;;;;;;;18.75;8.95;;;16.60;73.40;;;;;;4172726;28;20139;-53
2023/12/17 11:19:05;;;;;;;12.75;7.75;;;16.50;73.60;;;;;;4168693;28;20056;-54
2023/12/17 11:21:46;;;;;;;26.02;12.27;;;16.50;73.80;;;;;;4172844;28;20184;-54
2023/12/17 11:24:27;;;;;;;9.18;6.30;;;16.50;73.90;;;;;;4173018;28;20080;-56
2023/12/17 11:27:09;;;;;;;14.15;7.90;;;16.40;74.00;;;;;;4176440;28;20728;-53
2023/12/17 11:29:50;;;;;;;18.52;12.35;;;16.40;74.20;;;;;;4171527;28;20055;-55
2023/12/17 11:32:32;;;;;;;26.85;13.60;;;16.40;74.30;;;;;;4177365;28;20059;-56
2023/12/17 11:35:15;;;;;;;18.30;11.63;;;16.40;74.30;;;;;;4167877;28;20107;-57
2023/12/17 11:37:56;;;;;;;12.27;7.32;;;16.50;74.70;;;;;;4169609;28;20107;-57
2023/12/17 11:40:39;;;;;;;13.85;8.57;;;16.60;74.90;;;;;;4168761;28;20087;-56
2023/12/17 11:43:23;;;;;;;20.08;12.38;;;16.70;74.40;;;;;;4168855;28;20044;-56
2023/12/17 11:46:10;;;;;;;19.38;11.75;;;16.70;74.10;;;;;;4165281;28;20060;-55
2023/12/17 11:48:52;;;;;;;16.40;8.50;;;16.70;73.90;;;;;;4178377;28;20580;-56
2023/12/17 11:51:34;;;;;;;;;;;16.80;73.80;;;;;;4173820;28;20415;-56
2023/12/17 11:54:18;;;;;;;16.70;11.65;;;16.80;73.40;;;;;;4169988;28;19935;-56
2023/12/17 11:57:00;;;;;;;11.45;7.75;;;16.80;73.30;;;;;;4168520;28;20511;-56
2023/12/17 11:59:41;;;;;;;17.02;8.70;;;16.80;73.10;;;;;;4169387;28;20671;-54
2023/12/17 12:02:26;;;;;;;12.32;9.13;;;16.90;73.00;;;;;;4182629;28;20133;-63
2023/12/17 12:05:09;;;;;;;11.65;7.72;;;17.00;72.80;;;;;;4190281;28;20153;-64
2023/12/17 12:07:55;;;;;;;10.82;7.47;;;17.00;72.70;;;;;;4184393;28;20144;-64
2023/12/17 12:10:36;;;;;;;12.57;8.80;;;17.00;72.60;;;;;;4174071;28;20130;-65
2023/12/17 12:13:17;;;;;;;9.55;6.15;;;17.00;72.70;;;;;;4168621;28;20051;-65
2023/12/17 12:15:59;;;;;;;13.70;6.70;;;17.00;72.70;;;;;;4175636;28;20052;-64
2023/12/17 12:18:40;;;;;;;7.28;5.63;;;17.00;72.80;;;;;;4168815;28;20558;-64
2023/12/17 12:21:22;;;;;;;6.38;5.18;;;17.00;72.90;;;;;;4183706;28;20132;-64
2023/12/17 12:24:10;;;;;;;13.48;7.60;;;17.10;72.70;;;;;;4170562;28;20072;-66
2023/12/17 12:26:51;;;;;;;9.27;7.75;;;17.10;72.20;;;;;;4170204;28;20863;-66
2023/12/17 12:29:37;;;;;;;10.10;6.75;;;17.20;72.00;;;;;;4180695;28;20052;-63
2023/12/17 12:32:27;;;;;;;7.13;5.55;;;17.20;71.80;;;;;;4177855;28;20502;-69
2023/12/17 12:35:21;;;;;;;7.15;5.70;;;17.30;71.80;;;;;;4167727;28;20060;-63
2023/12/17 12:38:16;;;;;;;7.90;4.70;;;17.40;71.50;;;;;;4182589;28;20063;-62
2023/12/17 12:40:59;;;;;;;6.75;5.05;;;17.50;70.90;;;;;;4168011;28;20060;-62
2023/12/17 12:43:40;;;;;;;9.73;6.80;;;17.50;70.50;;;;;;4178515;28;20079;-63
2023/12/17 12:46:22;;;;;;;7.80;5.72;;;17.50;70.10;;;;;;4173156;28;20056;-63
2023/12/17 12:49:03;;;;;;;8.10;5.80;;;17.40;69.80;;;;;;4167487;28;20508;-64
2023/12/17 12:51:44;;;;;;;7.05;4.07;;;17.40;69.90;;;;;;4178938;28;20545;-63
2023/12/17 12:54:25;;;;;;;10.82;6.80;;;17.40;70.00;;;;;;4169348;28;20048;-62
2023/12/17 12:57:08;;;;;;;9.70;6.57;;;17.40;70.10;;;;;;4170140;28;20075;-58
2023/12/17 12:59:49;;;;;;;6.80;5.18;;;17.40;70.10;;;;;;4167715;28;20193;-58
2023/12/17 13:02:32;;;;;;;7.30;4.55;;;17.30;70.00;;;;;;4171728;28;20511;-59
2023/12/17 13:05:14;;;;;;;7.93;5.70;;;17.40;70.50;;;;;;4171396;28;20088;-59
2023/12/17 13:07:55;;;;;;;12.20;6.45;;;17.40;70.50;;;;;;4182825;28;20055;-62
2023/12/17 13:10:36;;;;;;;10.93;7.30;;;17.40;70.10;;;;;;4178428;28;20399;-62
2023/12/17 13:13:19;;;;;;;13.40;8.20;;;17.30;70.00;;;;;;4177377;28;20088;-62
2023/12/17 13:16:00;;;;;;;10.13;6.25;;;17.40;70.10;;;;;;4167435;28;20055;-62
2023/12/17 13:18:41;;;;;;;13.38;8.60;;;17.30;70.20;;;;;;4171194;28;20105;-63
2023/12/17 13:21:23;;;;;;;8.10;5.80;;;17.20;71.10;;;;;;4178890;28;20116;-63
2023/12/17 13:24:04;;;;;;;;;;;17.20;70.40;;;;;;4183663;28;20056;-64
2023/12/17 13:26:45;;;;;;;9.13;7.22;;;17.10;70.50;;;;;;4179889;28;20350;-59
2023/12/17 13:29:28;;;;;;;10.25;6.45;;;17.00;70.60;;;;;;4164573;28;20098;-59
2023/12/17 13:32:09;;;;;;;11.02;6.32;;;16.90;70.90;;;;;;4170229;28;20562;-59
2023/12/17 13:34:50;;;;;;;6.05;4.40;;;16.80;71.10;;;;;;4171197;28;20554;-60
2023/12/17 13:37:31;;;;;;;;;;;16.80;71.40;;;;;;4177309;28;20079;-59
2023/12/17 13:40:13;;;;;;;8.50;5.93;;;16.70;71.60;;;;;;4175749;28;19986;-59
2023/12/17 13:42:55;;;;;;;15.55;8.68;;;16.60;71.70;;;;;;4183121;28;20046;-59
2023/12/17 13:45:37;;;;;;;11.18;6.97;;;16.50;71.90;;;;;;4174898;28;20555;-59
2023/12/17 13:48:18;;;;;;;17.60;10.13;;;16.50;72.30;;;;;;4169052;28;20056;-59
2023/12/17 13:51:00;;;;;;;11.95;6.63;;;16.40;72.40;;;;;;4167506;28;20573;-58
2023/12/17 13:53:42;;;;;;;13.73;9.13;;;16.40;72.80;;;;;;4178591;28;20052;-59
2023/12/17 13:56:23;;;;;;;10.57;7.88;;;16.30;72.90;;;;;;4167007;28;20052;-59
2023/12/17 13:59:07;;;;;;;11.07;7.75;;;16.30;73.00;;;;;;4166364;28;20083;-59
2023/12/17 14:01:49;;;;;;;14.27;9.20;;;16.20;73.10;;;;;;4182743;28;20059;-59
2023/12/17 14:04:30;;;;;;;15.80;8.88;;;16.20;73.40;;;;;;4178750;28;20063;-59